sensor_id;sensor_type;location;lat;lon;timestamp;temperature;humidity
8711;DHT22;4392;47.400;8.062;2023-04-10T00:01:14;9.80;84.70
8711;DHT22;4392;47.400;8.062;2023-04-10T00:03:43;9.90;84.30
8711;DHT22;4392;47.400;8.062;2023-04-10T00:06:09;10.00;83.40
8711;DHT22;4392;47.400;8.062;2023-04-10T00:08:34;10.00;82.10
8711;DHT22;4392;47.400;8.062;2023-04-10T00:11:00;10.60;92.80
8711;DHT22;4392;47.400;8.062;2023-04-10T00:13:26;10.10;81.50
8711;DHT22;4392;47.400;8.062;2023-04-10T00:15:52;9.90;83.40
8711;DHT22;4392;47.400;8.062;2023-04-10T00:18:21;9.70;84.10
8711;DHT22;4392;47.400;8.062;2023-04-10T00:20:47;9.60;84.40
8711;DHT22;4392;47.400;8.062;2023-04-10T00:23:12;9.60;83.70
8711;DHT22;4392;47.400;8.062;2023-04-10T00:25:38;9.70;84.20
8711;DHT22;4392;47.400;8.062;2023-04-10T00:28:04;9.70;84.70
8711;DHT22;4392;47.400;8.062;2023-04-10T00:30:35;9.60;84.50
8711;DHT22;4392;47.400;8.062;2023-04-10T00:33:03;9.50;83.10
8711;DHT22;4392;47.400;8.062;2023-04-10T00:35:29;9.30;82.10
8711;DHT22;4392;47.400;8.062;2023-04-10T00:37:59;9.20;83.00
8711;DHT22;4392;47.400;8.062;2023-04-10T00:40:27;9.30;83.40
8711;DHT22;4392;47.400;8.062;2023-04-10T00:42:57;9.30;83.80
8711;DHT22;4392;47.400;8.062;2023-04-10T00:45:22;9.30;83.90
8711;DHT22;4392;47.400;8.062;2023-04-10T00:47:48;9.30;83.90
8711;DHT22;4392;47.400;8.062;2023-04-10T00:50:15;9.30;84.10
8711;DHT22;4392;47.400;8.062;2023-04-10T00:52:41;9.20;84.70
8711;DHT22;4392;47.400;8.062;2023-04-10T00:55:13;9.10;85.70
8711;DHT22;4392;47.400;8.062;2023-04-10T00:57:48;9.20;86.00
8711;DHT22;4392;47.400;8.062;2023-04-10T01:00:14;9.10;86.10
8711;DHT22;4392;47.400;8.062;2023-04-10T01:02:41;9.20;86.10
8711;DHT22;4392;47.400;8.062;2023-04-10T01:05:08;9.00;86.40
8711;DHT22;4392;47.400;8.062;2023-04-10T01:08:46;9.00;87.50
8711;DHT22;4392;47.400;8.062;2023-04-10T01:11:09;9.10;88.00
8711;DHT22;4392;47.400;8.062;2023-04-10T01:14:09;9.10;87.80
8711;DHT22;4392;47.400;8.062;2023-04-10T01:17:21;9.10;88.20
8711;DHT22;4392;47.400;8.062;2023-04-10T01:30:53;9.20;87.60
8711;DHT22;4392;47.400;8.062;2023-04-10T01:33:29;8.90;88.20
8711;DHT22;4392;47.400;8.062;2023-04-10T01:35:59;8.90;89.30
8711;DHT22;4392;47.400;8.062;2023-04-10T01:38:31;8.90;88.40
8711;DHT22;4392;47.400;8.062;2023-04-10T01:40:58;8.90;88.40
8711;DHT22;4392;47.400;8.062;2023-04-10T01:43:32;8.90;88.50
8711;DHT22;4392;47.400;8.062;2023-04-10T01:46:05;8.80;88.30
8711;DHT22;4392;47.400;8.062;2023-04-10T01:48:31;8.80;88.10
8711;DHT22;4392;47.400;8.062;2023-04-10T01:50:57;8.70;87.80
8711;DHT22;4392;47.400;8.062;2023-04-10T01:53:26;8.70;88.00
8711;DHT22;4392;47.400;8.062;2023-04-10T01:55:54;8.60;88.10
8711;DHT22;4392;47.400;8.062;2023-04-10T01:58:20;8.40;89.00
8711;DHT22;4392;47.400;8.062;2023-04-10T02:00:45;8.50;88.90
8711;DHT22;4392;47.400;8.062;2023-04-10T02:03:11;8.50;88.70
8711;DHT22;4392;47.400;8.062;2023-04-10T02:06:06;8.60;88.50
8711;DHT22;4392;47.400;8.062;2023-04-10T02:11:40;8.50;88.40
8711;DHT22;4392;47.400;8.062;2023-04-10T02:14:11;8.60;88.50
8711;DHT22;4392;47.400;8.062;2023-04-10T02:16:46;8.40;88.10
8711;DHT22;4392;47.400;8.062;2023-04-10T02:19:13;8.30;88.70
8711;DHT22;4392;47.400;8.062;2023-04-10T02:21:45;8.30;89.20
8711;DHT22;4392;47.400;8.062;2023-04-10T02:24:13;8.30;89.40
8711;DHT22;4392;47.400;8.062;2023-04-10T02:26:50;8.30;89.00
8711;DHT22;4392;47.400;8.062;2023-04-10T02:29:19;8.40;89.40
8711;DHT22;4392;47.400;8.062;2023-04-10T02:31:45;8.40;89.10
8711;DHT22;4392;47.400;8.062;2023-04-10T02:34:13;8.30;89.20
8711;DHT22;4392;47.400;8.062;2023-04-10T02:36:47;8.30;89.60
8711;DHT22;4392;47.400;8.062;2023-04-10T02:39:13;8.20;89.70
8711;DHT22;4392;47.400;8.062;2023-04-10T02:41:38;8.20;89.80
8711;DHT22;4392;47.400;8.062;2023-04-10T02:44:04;8.10;89.30
8711;DHT22;4392;47.400;8.062;2023-04-10T02:46:34;8.00;89.90
8711;DHT22;4392;47.400;8.062;2023-04-10T02:49:01;7.90;89.10
8711;DHT22;4392;47.400;8.062;2023-04-10T02:51:27;8.10;89.10
8711;DHT22;4392;47.400;8.062;2023-04-10T02:53:52;8.10;89.20
8711;DHT22;4392;47.400;8.062;2023-04-10T02:56:22;8.20;89.00
8711;DHT22;4392;47.400;8.062;2023-04-10T02:58:48;8.10;89.60
8711;DHT22;4392;47.400;8.062;2023-04-10T03:01:13;7.60;90.70
8711;DHT22;4392;47.400;8.062;2023-04-10T03:03:40;7.60;91.00
8711;DHT22;4392;47.400;8.062;2023-04-10T03:06:13;7.60;90.80
8711;DHT22;4392;47.400;8.062;2023-04-10T03:08:39;7.20;91.60
8711;DHT22;4392;47.400;8.062;2023-04-10T03:11:06;7.40;91.80
8711;DHT22;4392;47.400;8.062;2023-04-10T03:13:31;7.40;91.20
8711;DHT22;4392;47.400;8.062;2023-04-10T03:16:00;7.20;91.30
8711;DHT22;4392;47.400;8.062;2023-04-10T03:18:30;7.50;90.70
8711;DHT22;4392;47.400;8.062;2023-04-10T03:21:01;7.70;90.30
8711;DHT22;4392;47.400;8.062;2023-04-10T03:23:27;7.80;90.20
8711;DHT22;4392;47.400;8.062;2023-04-10T03:25:55;7.80;89.70
8711;DHT22;4392;47.400;8.062;2023-04-10T03:28:23;7.80;89.60
8711;DHT22;4392;47.400;8.062;2023-04-10T03:30:50;7.80;89.60
8711;DHT22;4392;47.400;8.062;2023-04-10T03:33:16;7.80;90.40
8711;DHT22;4392;47.400;8.062;2023-04-10T03:35:41;7.80;90.10
8711;DHT22;4392;47.400;8.062;2023-04-10T03:38:07;7.70;90.20
8711;DHT22;4392;47.400;8.062;2023-04-10T03:40:33;7.70;90.30
8711;DHT22;4392;47.400;8.062;2023-04-10T03:43:18;7.70;90.40
8711;DHT22;4392;47.400;8.062;2023-04-10T03:45:50;7.70;90.70
8711;DHT22;4392;47.400;8.062;2023-04-10T03:48:18;7.60;90.50
8711;DHT22;4392;47.400;8.062;2023-04-10T03:50:44;7.70;90.70
8711;DHT22;4392;47.400;8.062;2023-04-10T03:53:10;7.70;90.80
8711;DHT22;4392;47.400;8.062;2023-04-10T03:55:40;7.70;90.80
8711;DHT22;4392;47.400;8.062;2023-04-10T03:58:06;7.70;90.80
8711;DHT22;4392;47.400;8.062;2023-04-10T04:00:33;7.70;90.80
8711;DHT22;4392;47.400;8.062;2023-04-10T04:03:01;7.70;91.10
8711;DHT22;4392;47.400;8.062;2023-04-10T04:05:31;7.70;91.10
8711;DHT22;4392;47.400;8.062;2023-04-10T04:07:57;7.70;91.20
8711;DHT22;4392;47.400;8.062;2023-04-10T04:10:23;7.70;91.30
8711;DHT22;4392;47.400;8.062;2023-04-10T04:12:54;7.70;91.20
8711;DHT22;4392;47.400;8.062;2023-04-10T04:15:20;7.60;91.20
8711;DHT22;4392;47.400;8.062;2023-04-10T04:17:48;7.50;91.30
8711;DHT22;4392;47.400;8.062;2023-04-10T04:20:13;7.50;91.30
8711;DHT22;4392;47.400;8.062;2023-04-10T04:22:44;7.60;91.50
8711;DHT22;4392;47.400;8.062;2023-04-10T04:25:10;7.60;91.50
8711;DHT22;4392;47.400;8.062;2023-04-10T04:27:36;7.60;91.50
8711;DHT22;4392;47.400;8.062;2023-04-10T04:30:06;7.60;91.50
8711;DHT22;4392;47.400;8.062;2023-04-10T04:32:32;7.50;91.40
8711;DHT22;4392;47.400;8.062;2023-04-10T04:34:57;7.40;91.50
8711;DHT22;4392;47.400;8.062;2023-04-10T04:37:23;7.50;91.60
8711;DHT22;4392;47.400;8.062;2023-04-10T04:42:20;7.40;91.50
8711;DHT22;4392;47.400;8.062;2023-04-10T04:44:45;7.40;91.50
8711;DHT22;4392;47.400;8.062;2023-04-10T04:47:15;7.40;91.40
8711;DHT22;4392;47.400;8.062;2023-04-10T04:49:41;7.40;91.50
8711;DHT22;4392;47.400;8.062;2023-04-10T04:52:07;7.40;91.70
8711;DHT22;4392;47.400;8.062;2023-04-10T04:54:37;7.40;91.60
8711;DHT22;4392;47.400;8.062;2023-04-10T04:57:03;7.40;91.40
8711;DHT22;4392;47.400;8.062;2023-04-10T04:59:34;7.30;91.60
8711;DHT22;4392;47.400;8.062;2023-04-10T05:02:00;7.30;91.70
8711;DHT22;4392;47.400;8.062;2023-04-10T05:04:25;7.30;91.70
8711;DHT22;4392;47.400;8.062;2023-04-10T05:06:52;7.30;91.60
8711;DHT22;4392;47.400;8.062;2023-04-10T05:09:17;7.30;91.50
8711;DHT22;4392;47.400;8.062;2023-04-10T05:11:43;7.20;91.50
8711;DHT22;4392;47.400;8.062;2023-04-10T05:14:09;7.00;92.00
8711;DHT22;4392;47.400;8.062;2023-04-10T05:16:42;7.20;91.80
8711;DHT22;4392;47.400;8.062;2023-04-10T05:19:08;7.00;92.10
8711;DHT22;4392;47.400;8.062;2023-04-10T05:21:34;7.10;92.10
8711;DHT22;4392;47.400;8.062;2023-04-10T05:24:05;7.20;92.10
8711;DHT22;4392;47.400;8.062;2023-04-10T05:26:33;7.20;92.30
8711;DHT22;4392;47.400;8.062;2023-04-10T05:29:06;7.20;92.40
8711;DHT22;4392;47.400;8.062;2023-04-10T05:31:32;7.20;92.50
8711;DHT22;4392;47.400;8.062;2023-04-10T05:33:57;7.30;92.50
8711;DHT22;4392;47.400;8.062;2023-04-10T05:36:23;7.30;92.40
8711;DHT22;4392;47.400;8.062;2023-04-10T05:38:53;7.30;92.40
8711;DHT22;4392;47.400;8.062;2023-04-10T05:41:19;7.30;92.20
8711;DHT22;4392;47.400;8.062;2023-04-10T05:43:44;7.40;92.40
8711;DHT22;4392;47.400;8.062;2023-04-10T05:46:10;7.20;92.50
8711;DHT22;4392;47.400;8.062;2023-04-10T05:48:37;7.20;92.40
8711;DHT22;4392;47.400;8.062;2023-04-10T05:51:10;7.10;92.70
8711;DHT22;4392;47.400;8.062;2023-04-10T05:53:36;7.30;92.40
8711;DHT22;4392;47.400;8.062;2023-04-10T05:56:01;7.30;92.30
8711;DHT22;4392;47.400;8.062;2023-04-10T05:58:27;7.20;92.50
8711;DHT22;4392;47.400;8.062;2023-04-10T06:01:01;7.20;92.40
8711;DHT22;4392;47.400;8.062;2023-04-10T06:03:27;7.40;92.50
8711;DHT22;4392;47.400;8.062;2023-04-10T06:05:55;7.30;92.50
8711;DHT22;4392;47.400;8.062;2023-04-10T06:08:21;7.20;92.70
8711;DHT22;4392;47.400;8.062;2023-04-10T06:10:50;7.20;93.00
8711;DHT22;4392;47.400;8.062;2023-04-10T06:13:18;7.30;93.10
8711;DHT22;4392;47.400;8.062;2023-04-10T06:15:44;7.30;93.30
8711;DHT22;4392;47.400;8.062;2023-04-10T06:18:11;7.10;93.10
8711;DHT22;4392;47.400;8.062;2023-04-10T06:20:39;6.70;93.40
8711;DHT22;4392;47.400;8.062;2023-04-10T06:23:05;7.00;93.40
8711;DHT22;4392;47.400;8.062;2023-04-10T06:25:30;7.10;92.40
8711;DHT22;4392;47.400;8.062;2023-04-10T06:27:56;7.30;92.10
8711;DHT22;4392;47.400;8.062;2023-04-10T06:30:24;7.30;92.20
8711;DHT22;4392;47.400;8.062;2023-04-10T06:32:54;7.40;92.40
8711;DHT22;4392;47.400;8.062;2023-04-10T06:35:20;7.30;92.60
8711;DHT22;4392;47.400;8.062;2023-04-10T06:37:46;7.50;92.40
8711;DHT22;4392;47.400;8.062;2023-04-10T06:40:14;7.40;91.80
8711;DHT22;4392;47.400;8.062;2023-04-10T06:42:43;7.40;92.00
8711;DHT22;4392;47.400;8.062;2023-04-10T06:45:09;7.60;92.00
8711;DHT22;4392;47.400;8.062;2023-04-10T06:47:35;7.70;91.30
8711;DHT22;4392;47.400;8.062;2023-04-10T06:50:01;7.90;91.30
8711;DHT22;4392;47.400;8.062;2023-04-10T06:52:32;7.90;90.90
8711;DHT22;4392;47.400;8.062;2023-04-10T06:54:58;8.00;90.90
8711;DHT22;4392;47.400;8.062;2023-04-10T06:57:24;7.90;90.90
8711;DHT22;4392;47.400;8.062;2023-04-10T06:59:50;7.80;91.50
8711;DHT22;4392;47.400;8.062;2023-04-10T07:02:15;8.00;91.20
8711;DHT22;4392;47.400;8.062;2023-04-10T07:04:44;8.20;90.60
8711;DHT22;4392;47.400;8.062;2023-04-10T07:07:10;8.20;90.50
8711;DHT22;4392;47.400;8.062;2023-04-10T07:09:39;8.30;90.40
8711;DHT22;4392;47.400;8.062;2023-04-10T07:12:04;8.30;90.20
8711;DHT22;4392;47.400;8.062;2023-04-10T07:14:32;8.40;90.30
8711;DHT22;4392;47.400;8.062;2023-04-10T07:17:05;8.40;90.00
8711;DHT22;4392;47.400;8.062;2023-04-10T07:19:30;8.50;90.00
8711;DHT22;4392;47.400;8.062;2023-04-10T07:21:56;8.60;90.00
8711;DHT22;4392;47.400;8.062;2023-04-10T07:24:24;8.60;89.30
8711;DHT22;4392;47.400;8.062;2023-04-10T07:26:50;8.60;88.60
8711;DHT22;4392;47.400;8.062;2023-04-10T07:29:18;8.50;89.00
8711;DHT22;4392;47.400;8.062;2023-04-10T07:31:46;8.70;89.00
8711;DHT22;4392;47.400;8.062;2023-04-10T07:34:12;8.80;88.40
8711;DHT22;4392;47.400;8.062;2023-04-10T07:36:38;8.80;88.40
8711;DHT22;4392;47.400;8.062;2023-04-10T07:39:04;8.90;88.40
8711;DHT22;4392;47.400;8.062;2023-04-10T07:41:29;9.00;88.10
8711;DHT22;4392;47.400;8.062;2023-04-10T07:43:55;9.00;86.60
8711;DHT22;4392;47.400;8.062;2023-04-10T07:46:24;9.00;87.40
8711;DHT22;4392;47.400;8.062;2023-04-10T07:48:54;9.10;87.40
8711;DHT22;4392;47.400;8.062;2023-04-10T07:51:20;9.20;86.70
8711;DHT22;4392;47.400;8.062;2023-04-10T07:53:50;9.30;87.50
8711;DHT22;4392;47.400;8.062;2023-04-10T07:56:17;9.40;86.10
8711;DHT22;4392;47.400;8.062;2023-04-10T07:58:43;9.50;85.90
8711;DHT22;4392;47.400;8.062;2023-04-10T08:01:09;9.60;85.60
8711;DHT22;4392;47.400;8.062;2023-04-10T08:03:42;9.30;85.90
8711;DHT22;4392;47.400;8.062;2023-04-10T08:06:09;9.50;87.30
8711;DHT22;4392;47.400;8.062;2023-04-10T08:08:41;9.60;86.00
8711;DHT22;4392;47.400;8.062;2023-04-10T08:11:28;9.80;85.60
8711;DHT22;4392;47.400;8.062;2023-04-10T08:13:56;9.80;86.10
8711;DHT22;4392;47.400;8.062;2023-04-10T08:16:42;9.80;85.90
8711;DHT22;4392;47.400;8.062;2023-04-10T08:19:08;10.00;84.50
8711;DHT22;4392;47.400;8.062;2023-04-10T08:21:34;10.10;84.20
8711;DHT22;4392;47.400;8.062;2023-04-10T08:24:05;10.10;83.40
8711;DHT22;4392;47.400;8.062;2023-04-10T08:26:32;10.10;84.20
8711;DHT22;4392;47.400;8.062;2023-04-10T08:28:59;9.90;86.10
8711;DHT22;4392;47.400;8.062;2023-04-10T08:31:28;10.00;85.60
8711;DHT22;4392;47.400;8.062;2023-04-10T08:33:54;10.30;85.10
8711;DHT22;4392;47.400;8.062;2023-04-10T08:36:19;10.40;84.40
8711;DHT22;4392;47.400;8.062;2023-04-10T08:38:46;10.60;83.30
8711;DHT22;4392;47.400;8.062;2023-04-10T08:41:20;10.60;82.60
8711;DHT22;4392;47.400;8.062;2023-04-10T08:43:46;10.70;82.50
8711;DHT22;4392;47.400;8.062;2023-04-10T08:46:12;10.80;81.60
8711;DHT22;4392;47.400;8.062;2023-04-10T08:51:18;10.90;81.80
8711;DHT22;4392;47.400;8.062;2023-04-10T08:53:47;10.90;80.80
8711;DHT22;4392;47.400;8.062;2023-04-10T08:56:18;11.00;81.00
8711;DHT22;4392;47.400;8.062;2023-04-10T08:58:45;11.10;80.60
8711;DHT22;4392;47.400;8.062;2023-04-10T09:01:13;11.30;80.40
8711;DHT22;4392;47.400;8.062;2023-04-10T09:03:43;11.30;79.80
8711;DHT22;4392;47.400;8.062;2023-04-10T09:06:14;10.90;81.10
8711;DHT22;4392;47.400;8.062;2023-04-10T09:08:43;10.90;81.20
8711;DHT22;4392;47.400;8.062;2023-04-10T09:11:09;10.80;83.00
8711;DHT22;4392;47.400;8.062;2023-04-10T09:13:40;11.10;82.00
8711;DHT22;4392;47.400;8.062;2023-04-10T09:16:14;11.50;81.50
8711;DHT22;4392;47.400;8.062;2023-04-10T09:21:10;11.50;80.10
8711;DHT22;4392;47.400;8.062;2023-04-10T09:23:36;11.80;79.40
8711;DHT22;4392;47.400;8.062;2023-04-10T09:26:25;11.90;80.00
8711;DHT22;4392;47.400;8.062;2023-04-10T09:29:09;11.80;79.30
8711;DHT22;4392;47.400;8.062;2023-04-10T09:31:40;12.00;77.60
8711;DHT22;4392;47.400;8.062;2023-04-10T09:34:17;11.90;78.40
8711;DHT22;4392;47.400;8.062;2023-04-10T09:36:54;11.80;79.00
8711;DHT22;4392;47.400;8.062;2023-04-10T09:39:37;11.90;80.30
8711;DHT22;4392;47.400;8.062;2023-04-10T09:42:11;12.00;79.30
8711;DHT22;4392;47.400;8.062;2023-04-10T09:44:54;12.10;79.30
8711;DHT22;4392;47.400;8.062;2023-04-10T09:47:20;11.80;79.20
8711;DHT22;4392;47.400;8.062;2023-04-10T09:49:55;11.80;79.90
8711;DHT22;4392;47.400;8.062;2023-04-10T09:55:02;11.70;79.60
8711;DHT22;4392;47.400;8.062;2023-04-10T09:57:30;11.70;79.70
8711;DHT22;4392;47.400;8.062;2023-04-10T10:00:01;12.00;79.10
8711;DHT22;4392;47.400;8.062;2023-04-10T10:02:29;11.90;79.00
8711;DHT22;4392;47.400;8.062;2023-04-10T10:04:57;12.00;78.80
8711;DHT22;4392;47.400;8.062;2023-04-10T10:07:26;12.10;78.50
8711;DHT22;4392;47.400;8.062;2023-04-10T10:09:54;12.20;77.30
8711;DHT22;4392;47.400;8.062;2023-04-10T10:12:43;12.10;77.00
8711;DHT22;4392;47.400;8.062;2023-04-10T10:20:22;12.50;76.00
8711;DHT22;4392;47.400;8.062;2023-04-10T10:22:55;12.60;76.30
8711;DHT22;4392;47.400;8.062;2023-04-10T10:25:23;12.70;75.30
8711;DHT22;4392;47.400;8.062;2023-04-10T10:27:51;12.90;75.70
8711;DHT22;4392;47.400;8.062;2023-04-10T10:30:18;13.00;75.30
8711;DHT22;4392;47.400;8.062;2023-04-10T10:32:50;12.90;75.20
8711;DHT22;4392;47.400;8.062;2023-04-10T10:35:17;13.00;75.90
8711;DHT22;4392;47.400;8.062;2023-04-10T10:37:48;13.10;76.00
8711;DHT22;4392;47.400;8.062;2023-04-10T10:40:27;13.10;76.90
8711;DHT22;4392;47.400;8.062;2023-04-10T10:48:15;13.30;75.90
8711;DHT22;4392;47.400;8.062;2023-04-10T10:51:13;13.40;76.10
8711;DHT22;4392;47.400;8.062;2023-04-10T10:58:54;13.90;74.30
8711;DHT22;4392;47.400;8.062;2023-04-10T11:01:25;14.00;74.20
8711;DHT22;4392;47.400;8.062;2023-04-10T11:03:53;14.10;73.20
8711;DHT22;4392;47.400;8.062;2023-04-10T11:06:20;14.20;72.20
8711;DHT22;4392;47.400;8.062;2023-04-10T11:08:50;14.10;71.40
8711;DHT22;4392;47.400;8.062;2023-04-10T11:11:26;14.10;73.00
8711;DHT22;4392;47.400;8.062;2023-04-10T11:16:44;14.20;71.50
8711;DHT22;4392;47.400;8.062;2023-04-10T11:19:11;14.30;71.10
8711;DHT22;4392;47.400;8.062;2023-04-10T11:22:05;14.10;70.70
8711;DHT22;4392;47.400;8.062;2023-04-10T11:24:59;14.20;72.00
8711;DHT22;4392;47.400;8.062;2023-04-10T11:27:40;14.30;72.20
8711;DHT22;4392;47.400;8.062;2023-04-10T11:30:26;14.50;70.70
8711;DHT22;4392;47.400;8.062;2023-04-10T11:32:59;14.50;69.10
8711;DHT22;4392;47.400;8.062;2023-04-10T11:35:26;14.50;69.50
8711;DHT22;4392;47.400;8.062;2023-04-10T11:38:15;14.50;71.50
8711;DHT22;4392;47.400;8.062;2023-04-10T11:41:01;14.40;68.90
8711;DHT22;4392;47.400;8.062;2023-04-10T11:43:29;14.40;68.90
8711;DHT22;4392;47.400;8.062;2023-04-10T11:46:08;14.60;69.90
8711;DHT22;4392;47.400;8.062;2023-04-10T11:48:37;14.50;72.20
8711;DHT22;4392;47.400;8.062;2023-04-10T11:51:13;14.60;71.50
8711;DHT22;4392;47.400;8.062;2023-04-10T11:53:40;14.80;70.80
8711;DHT22;4392;47.400;8.062;2023-04-10T11:56:27;14.70;70.00
8711;DHT22;4392;47.400;8.062;2023-04-10T11:58:54;14.70;68.20
8711;DHT22;4392;47.400;8.062;2023-04-10T12:01:22;14.70;67.90
8711;DHT22;4392;47.400;8.062;2023-04-10T12:03:48;14.80;68.60
8711;DHT22;4392;47.400;8.062;2023-04-10T12:06:15;14.90;67.20
8711;DHT22;4392;47.400;8.062;2023-04-10T12:08:48;14.90;67.50
8711;DHT22;4392;47.400;8.062;2023-04-10T12:11:19;15.10;67.30
8711;DHT22;4392;47.400;8.062;2023-04-10T12:13:52;15.10;67.90
8711;DHT22;4392;47.400;8.062;2023-04-10T12:16:19;15.30;66.90
8711;DHT22;4392;47.400;8.062;2023-04-10T12:18:45;15.20;65.50
8711;DHT22;4392;47.400;8.062;2023-04-10T12:21:19;15.30;66.00
8711;DHT22;4392;47.400;8.062;2023-04-10T12:23:45;15.50;66.00
8711;DHT22;4392;47.400;8.062;2023-04-10T12:26:16;15.60;63.90
8711;DHT22;4392;47.400;8.062;2023-04-10T12:28:51;15.60;64.00
8711;DHT22;4392;47.400;8.062;2023-04-10T12:31:17;15.60;63.90
8711;DHT22;4392;47.400;8.062;2023-04-10T12:33:46;15.60;63.80
8711;DHT22;4392;47.400;8.062;2023-04-10T12:36:29;15.70;62.60
8711;DHT22;4392;47.400;8.062;2023-04-10T12:39:19;15.80;62.20
8711;DHT22;4392;47.400;8.062;2023-04-10T12:41:45;15.80;61.10
8711;DHT22;4392;47.400;8.062;2023-04-10T12:44:16;15.80;61.20
8711;DHT22;4392;47.400;8.062;2023-04-10T12:46:43;15.90;61.70
8711;DHT22;4392;47.400;8.062;2023-04-10T12:49:17;15.80;61.20
8711;DHT22;4392;47.400;8.062;2023-04-10T12:51:52;15.90;61.80
8711;DHT22;4392;47.400;8.062;2023-04-10T12:54:32;16.00;60.10
8711;DHT22;4392;47.400;8.062;2023-04-10T12:56:58;16.00;61.40
8711;DHT22;4392;47.400;8.062;2023-04-10T12:59:25;16.10;59.80
8711;DHT22;4392;47.400;8.062;2023-04-10T13:01:54;16.10;59.90
8711;DHT22;4392;47.400;8.062;2023-04-10T13:04:20;16.20;59.30
8711;DHT22;4392;47.400;8.062;2023-04-10T13:06:48;16.20;58.10
8711;DHT22;4392;47.400;8.062;2023-04-10T13:09:20;16.20;58.20
8711;DHT22;4392;47.400;8.062;2023-04-10T13:11:46;16.30;58.90
8711;DHT22;4392;47.400;8.062;2023-04-10T13:14:13;16.30;58.70
8711;DHT22;4392;47.400;8.062;2023-04-10T13:16:43;16.30;58.30
8711;DHT22;4392;47.400;8.062;2023-04-10T13:19:09;16.30;57.50
8711;DHT22;4392;47.400;8.062;2023-04-10T13:21:36;16.40;57.20
8711;DHT22;4392;47.400;8.062;2023-04-10T13:24:04;16.40;57.00
8711;DHT22;4392;47.400;8.062;2023-04-10T13:26:33;16.50;56.30
8711;DHT22;4392;47.400;8.062;2023-04-10T13:29:05;16.50;56.20
8711;DHT22;4392;47.400;8.062;2023-04-10T13:31:30;16.60;55.20
8711;DHT22;4392;47.400;8.062;2023-04-10T13:33:56;16.60;55.40
8711;DHT22;4392;47.400;8.062;2023-04-10T13:36:26;16.70;54.90
8711;DHT22;4392;47.400;8.062;2023-04-10T13:38:52;16.60;55.50
8711;DHT22;4392;47.400;8.062;2023-04-10T13:41:18;16.70;55.40
8711;DHT22;4392;47.400;8.062;2023-04-10T13:43:50;16.80;55.60
8711;DHT22;4392;47.400;8.062;2023-04-10T13:46:16;16.90;56.30
8711;DHT22;4392;47.400;8.062;2023-04-10T13:48:42;16.90;56.80
8711;DHT22;4392;47.400;8.062;2023-04-10T13:51:13;16.90;57.00
8711;DHT22;4392;47.400;8.062;2023-04-10T13:53:39;17.00;56.40
8711;DHT22;4392;47.400;8.062;2023-04-10T13:56:05;17.00;55.70
8711;DHT22;4392;47.400;8.062;2023-04-10T13:58:32;17.00;55.50
8711;DHT22;4392;47.400;8.062;2023-04-10T14:00:59;17.10;54.60
8711;DHT22;4392;47.400;8.062;2023-04-10T14:03:26;17.10;52.80
8711;DHT22;4392;47.400;8.062;2023-04-10T14:05:52;17.00;51.40
8711;DHT22;4392;47.400;8.062;2023-04-10T14:08:26;17.00;52.20
8711;DHT22;4392;47.400;8.062;2023-04-10T14:10:52;17.00;51.50
8711;DHT22;4392;47.400;8.062;2023-04-10T14:13:19;17.10;52.20
8711;DHT22;4392;47.400;8.062;2023-04-10T14:15:51;17.10;51.00
8711;DHT22;4392;47.400;8.062;2023-04-10T14:18:18;17.10;50.80
8711;DHT22;4392;47.400;8.062;2023-04-10T14:20:44;17.20;51.70
8711;DHT22;4392;47.400;8.062;2023-04-10T14:23:10;17.20;52.30
8711;DHT22;4392;47.400;8.062;2023-04-10T14:25:45;17.20;51.70
8711;DHT22;4392;47.400;8.062;2023-04-10T14:28:17;17.20;51.80
8711;DHT22;4392;47.400;8.062;2023-04-10T14:30:52;17.20;52.30
8711;DHT22;4392;47.400;8.062;2023-04-10T14:33:18;17.20;52.50
8711;DHT22;4392;47.400;8.062;2023-04-10T14:35:45;17.20;51.70
8711;DHT22;4392;47.400;8.062;2023-04-10T14:38:11;17.20;52.00
8711;DHT22;4392;47.400;8.062;2023-04-10T14:40:41;17.20;52.60
8711;DHT22;4392;47.400;8.062;2023-04-10T14:43:07;17.30;52.50
8711;DHT22;4392;47.400;8.062;2023-04-10T14:45:33;17.20;52.30
8711;DHT22;4392;47.400;8.062;2023-04-10T14:47:58;17.20;51.50
8711;DHT22;4392;47.400;8.062;2023-04-10T14:50:24;17.20;51.00
8711;DHT22;4392;47.400;8.062;2023-04-10T14:52:53;17.20;50.10
8711;DHT22;4392;47.400;8.062;2023-04-10T14:55:19;17.10;49.70
8711;DHT22;4392;47.400;8.062;2023-04-10T14:57:44;17.10;49.40
8711;DHT22;4392;47.400;8.062;2023-04-10T15:00:10;17.10;50.20
8711;DHT22;4392;47.400;8.062;2023-04-10T15:02:42;17.10;51.10
8711;DHT22;4392;47.400;8.062;2023-04-10T15:05:07;17.00;51.20
8711;DHT22;4392;47.400;8.062;2023-04-10T15:07:33;17.00;50.70
8711;DHT22;4392;47.400;8.062;2023-04-10T15:09:59;17.00;51.00
8711;DHT22;4392;47.400;8.062;2023-04-10T15:12:24;17.10;64.00
8711;DHT22;4392;47.400;8.062;2023-04-10T15:14:50;17.20;53.10
8711;DHT22;4392;47.400;8.062;2023-04-10T15:17:23;17.10;51.30
8711;DHT22;4392;47.400;8.062;2023-04-10T15:19:49;17.00;51.90
8711;DHT22;4392;47.400;8.062;2023-04-10T15:22:14;17.00;52.40
8711;DHT22;4392;47.400;8.062;2023-04-10T15:24:43;16.90;51.90
8711;DHT22;4392;47.400;8.062;2023-04-10T15:27:09;16.80;52.10
8711;DHT22;4392;47.400;8.062;2023-04-10T15:29:41;16.70;51.90
8711;DHT22;4392;47.400;8.062;2023-04-10T15:32:07;16.70;52.60
8711;DHT22;4392;47.400;8.062;2023-04-10T15:34:33;16.70;52.20
8711;DHT22;4392;47.400;8.062;2023-04-10T15:37:04;16.70;52.70
8711;DHT22;4392;47.400;8.062;2023-04-10T15:39:30;16.60;53.60
8711;DHT22;4392;47.400;8.062;2023-04-10T15:41:56;16.60;53.60
8711;DHT22;4392;47.400;8.062;2023-04-10T15:44:26;16.60;54.10
8711;DHT22;4392;47.400;8.062;2023-04-10T15:46:57;16.60;54.50
8711;DHT22;4392;47.400;8.062;2023-04-10T15:49:23;16.60;54.90
8711;DHT22;4392;47.400;8.062;2023-04-10T15:51:50;16.60;55.30
8711;DHT22;4392;47.400;8.062;2023-04-10T15:54:18;16.50;55.30
8711;DHT22;4392;47.400;8.062;2023-04-10T15:56:44;16.50;55.80
8711;DHT22;4392;47.400;8.062;2023-04-10T15:59:10;16.50;56.20
8711;DHT22;4392;47.400;8.062;2023-04-10T16:01:37;16.50;56.30
8711;DHT22;4392;47.400;8.062;2023-04-10T16:04:04;16.50;56.80
8711;DHT22;4392;47.400;8.062;2023-04-10T16:06:30;16.50;56.30
8711;DHT22;4392;47.400;8.062;2023-04-10T16:08:59;16.50;56.80
8711;DHT22;4392;47.400;8.062;2023-04-10T16:11:25;16.50;57.30
8711;DHT22;4392;47.400;8.062;2023-04-10T16:13:50;16.40;56.50
8711;DHT22;4392;47.400;8.062;2023-04-10T16:16:17;16.40;57.50
8711;DHT22;4392;47.400;8.062;2023-04-10T16:18:42;16.40;57.40
8711;DHT22;4392;47.400;8.062;2023-04-10T16:21:29;16.40;58.20
8711;DHT22;4392;47.400;8.062;2023-04-10T16:23:55;16.40;56.60
8711;DHT22;4392;47.400;8.062;2023-04-10T16:26:26;16.30;56.30
8711;DHT22;4392;47.400;8.062;2023-04-10T16:28:51;16.30;56.40
8711;DHT22;4392;47.400;8.062;2023-04-10T16:31:19;16.30;56.40
8711;DHT22;4392;47.400;8.062;2023-04-10T16:33:47;16.20;56.40
8711;DHT22;4392;47.400;8.062;2023-04-10T16:36:13;16.20;56.80
8711;DHT22;4392;47.400;8.062;2023-04-10T16:38:41;16.20;57.30
8711;DHT22;4392;47.400;8.062;2023-04-10T16:41:08;16.80;83.20
8711;DHT22;4392;47.400;8.062;2023-04-10T16:43:34;16.50;57.40
8711;DHT22;4392;47.400;8.062;2023-04-10T16:46:00;16.40;56.50
8711;DHT22;4392;47.400;8.062;2023-04-10T16:48:26;16.30;56.70
8711;DHT22;4392;47.400;8.062;2023-04-10T16:50:52;16.20;56.30
8711;DHT22;4392;47.400;8.062;2023-04-10T16:53:17;16.20;56.60
8711;DHT22;4392;47.400;8.062;2023-04-10T16:55:58;16.20;57.50
8711;DHT22;4392;47.400;8.062;2023-04-10T16:58:24;16.10;56.50
8711;DHT22;4392;47.400;8.062;2023-04-10T17:00:50;16.10;56.60
8711;DHT22;4392;47.400;8.062;2023-04-10T17:03:18;16.10;56.50
8711;DHT22;4392;47.400;8.062;2023-04-10T17:05:45;16.10;56.70